createdAt,value
2019-02-11T00:01:19.284Z,99.90
2019-02-11T00:03:48.516Z,99.90
2019-02-11T00:06:17.745Z,99.90
2019-02-11T00:08:46.936Z,99.90
2019-02-11T00:11:16.150Z,99.90
2019-02-11T00:13:45.520Z,99.90
2019-02-11T00:16:14.743Z,99.90
2019-02-11T00:18:43.890Z,99.90
2019-02-11T00:21:13.058Z,99.90
2019-02-11T00:23:42.214Z,99.90
2019-02-11T00:26:11.460Z,99.90
2019-02-11T00:28:40.661Z,99.90
2019-02-11T00:31:09.963Z,99.90
2019-02-11T00:33:39.200Z,99.90
2019-02-11T00:36:09.365Z,99.90
2019-02-11T00:38:38.624Z,99.90
2019-02-11T00:41:07.768Z,99.90
2019-02-11T00:43:36.912Z,99.90
2019-02-11T00:46:06.047Z,99.90
2019-02-11T00:48:35.163Z,99.90
2019-02-11T00:51:04.405Z,99.90
2019-02-11T00:53:33.657Z,99.90
2019-02-11T00:56:02.905Z,99.90
2019-02-11T00:58:32.064Z,99.90
2019-02-11T01:01:01.238Z,99.90
2019-02-11T01:03:30.373Z,99.90
2019-02-11T01:05:59.508Z,99.90
2019-02-11T01:08:28.766Z,99.90
2019-02-11T01:10:57.905Z,99.90
2019-02-11T01:13:28.029Z,99.90
2019-02-11T01:15:57.423Z,99.90
2019-02-11T01:18:26.629Z,99.90
2019-02-11T01:20:55.777Z,99.90
2019-02-11T01:23:24.908Z,99.90
2019-02-11T01:25:54.157Z,99.90
2019-02-11T01:28:23.314Z,99.90
2019-02-11T01:30:52.609Z,99.90
2019-02-11T01:33:21.796Z,99.90
2019-02-11T01:35:51.066Z,99.90
2019-02-11T01:38:20.342Z,99.90
2019-02-11T01:40:49.540Z,99.90
2019-02-11T01:43:18.662Z,99.90
2019-02-11T01:45:49.291Z,99.90
2019-02-11T01:48:18.525Z,99.90
2019-02-11T01:50:47.670Z,99.90
2019-02-11T01:53:16.888Z,99.90
2019-02-11T01:55:46.194Z,99.90
2019-02-11T01:58:15.501Z,99.90
2019-02-11T02:00:45.682Z,99.90
2019-02-11T02:03:14.866Z,99.90
2019-02-11T02:05:43.983Z,99.90
2019-02-11T02:08:14.447Z,99.90
2019-02-11T02:10:43.743Z,99.90
2019-02-11T02:13:12.881Z,99.90
2019-02-11T02:15:42.007Z,99.90
2019-02-11T02:18:11.205Z,99.90
2019-02-11T02:20:40.367Z,99.90
2019-02-11T02:23:09.492Z,99.90
2019-02-11T02:25:38.639Z,99.90
2019-02-11T02:28:07.776Z,99.90
2019-02-11T02:30:36.915Z,99.90
2019-02-11T02:33:06.263Z,99.90
2019-02-11T02:35:35.511Z,99.90
2019-02-11T02:38:04.625Z,99.90
2019-02-11T02:40:33.861Z,99.90
2019-02-11T02:43:02.991Z,99.90
2019-02-11T02:45:32.196Z,99.90
2019-02-11T02:48:01.362Z,99.90
2019-02-11T02:50:30.486Z,99.90
2019-02-11T02:52:59.700Z,99.90
2019-02-11T02:55:28.945Z,99.90
2019-02-11T02:57:58.162Z,99.90
2019-02-11T03:00:27.350Z,99.90
2019-02-11T03:02:56.580Z,99.90
2019-02-11T03:05:25.808Z,99.90
2019-02-11T03:07:55.018Z,99.90
2019-02-11T03:10:24.169Z,99.90
2019-02-11T03:12:53.400Z,99.90
2019-02-11T03:15:22.540Z,99.90
2019-02-11T03:17:51.803Z,99.90
2019-02-11T03:20:20.924Z,99.90
2019-02-11T03:22:50.060Z,99.90
2019-02-11T03:25:19.262Z,99.90
2019-02-11T03:27:48.413Z,99.90
2019-02-11T03:30:17.586Z,99.90
2019-02-11T03:32:46.780Z,99.90
2019-02-11T03:35:15.975Z,99.90
2019-02-11T03:37:45.126Z,99.90
2019-02-11T03:40:14.376Z,99.90
2019-02-11T03:42:43.519Z,99.90
2019-02-11T03:45:12.685Z,99.90
2019-02-11T03:47:41.819Z,99.90
2019-02-11T03:50:11.365Z,99.90
2019-02-11T03:52:40.629Z,99.90
2019-02-11T03:55:09.810Z,99.90
2019-02-11T03:57:39.117Z,99.90
2019-02-11T04:00:10.413Z,99.90
2019-02-11T04:02:39.588Z,99.90
2019-02-11T04:05:08.756Z,99.90
2019-02-11T04:07:38.057Z,99.90
2019-02-11T04:10:08.630Z,99.90
2019-02-11T04:12:37.832Z,99.90
2019-02-11T04:15:07.342Z,99.90
2019-02-11T04:17:36.540Z,99.90
2019-02-11T04:20:07.132Z,99.90
2019-02-11T04:22:36.281Z,99.90
2019-02-11T04:25:07.247Z,99.90
2019-02-11T04:27:36.404Z,99.90
2019-02-11T04:30:06.090Z,99.90
2019-02-11T04:32:35.240Z,99.90
2019-02-11T04:35:04.761Z,99.90
2019-02-11T04:37:33.880Z,99.90
2019-02-11T04:40:03.120Z,99.90
2019-02-11T04:42:32.230Z,99.90
2019-02-11T04:45:01.545Z,99.90
2019-02-11T04:47:30.719Z,99.90
2019-02-11T04:49:59.932Z,99.90
2019-02-11T04:52:29.115Z,99.90
2019-02-11T04:54:58.300Z,99.90
2019-02-11T04:57:27.519Z,99.90
2019-02-11T04:59:56.680Z,99.90
2019-02-11T05:02:25.868Z,99.90
2019-02-11T05:04:55.050Z,99.90
2019-02-11T05:07:24.262Z,99.90
2019-02-11T05:09:53.411Z,99.90
2019-02-11T05:12:22.778Z,99.90
2019-02-11T05:14:52.018Z,99.90
2019-02-11T05:17:21.212Z,99.90
2019-02-11T05:19:50.347Z,99.90
2019-02-11T05:22:19.603Z,99.90
2019-02-11T05:24:48.972Z,99.90
2019-02-11T05:27:18.209Z,99.90
2019-02-11T05:29:47.525Z,99.90
2019-02-11T05:32:16.729Z,99.90
2019-02-11T05:34:45.925Z,99.90
2019-02-11T05:37:15.120Z,99.90
2019-02-11T05:39:44.306Z,99.90
2019-02-11T05:42:13.538Z,99.90
2019-02-11T05:44:42.820Z,99.90
2019-02-11T05:47:12.041Z,99.90
2019-02-11T05:49:41.196Z,99.90
2019-02-11T05:52:10.367Z,99.90
2019-02-11T05:54:39.570Z,99.90
2019-02-11T05:57:08.769Z,99.90
2019-02-11T05:59:37.928Z,99.90
2019-02-11T06:02:07.171Z,99.90
2019-02-11T06:04:36.485Z,99.90
2019-02-11T06:07:05.719Z,99.90
2019-02-11T06:09:34.991Z,99.90
2019-02-11T06:12:06.921Z,99.90
2019-02-11T06:14:36.151Z,99.90
2019-02-11T06:17:06.795Z,99.90
2019-02-11T06:19:35.933Z,99.90
2019-02-11T06:22:05.112Z,99.90
2019-02-11T06:24:34.252Z,99.90
2019-02-11T06:27:03.400Z,99.90
2019-02-11T06:29:32.537Z,99.90
2019-02-11T06:32:01.720Z,99.90
2019-02-11T06:34:30.941Z,99.90
2019-02-11T06:37:00.193Z,99.90
2019-02-11T06:39:29.414Z,99.90
2019-02-11T06:41:58.550Z,99.90
2019-02-11T06:44:27.765Z,99.90
2019-02-11T06:46:56.964Z,99.90
2019-02-11T06:49:26.951Z,99.90
2019-02-11T06:51:56.132Z,99.90
2019-02-11T06:54:25.304Z,99.90
2019-02-11T06:56:54.574Z,99.90
2019-02-11T06:59:23.798Z,99.90
2019-02-11T07:01:53.060Z,99.90
2019-02-11T07:04:22.333Z,99.90
2019-02-11T07:06:51.503Z,99.90
2019-02-11T07:09:20.720Z,99.90
2019-02-11T07:11:49.876Z,99.90
2019-02-11T07:14:19.128Z,99.90
2019-02-11T07:16:48.384Z,99.90
2019-02-11T07:19:17.711Z,99.90
2019-02-11T07:21:46.860Z,99.90
2019-02-11T07:24:16.072Z,99.90
2019-02-11T07:26:45.504Z,99.90
2019-02-11T07:29:14.723Z,99.90
2019-02-11T07:31:43.894Z,99.90
2019-02-11T07:34:13.036Z,99.90
2019-02-11T07:36:43.420Z,99.90
2019-02-11T07:39:12.607Z,99.90
2019-02-11T07:42:04.756Z,99.90
2019-02-11T07:44:44.796Z,99.90
2019-02-11T07:47:14.008Z,99.90
2019-02-11T07:49:43.230Z,99.90
2019-02-11T07:52:12.484Z,99.90
2019-02-11T07:54:41.672Z,99.90
2019-02-11T07:57:10.841Z,99.90
2019-02-11T07:59:39.983Z,99.90
2019-02-11T08:02:09.189Z,99.90
2019-02-11T08:04:38.465Z,99.90
2019-02-11T08:07:07.800Z,99.90
2019-02-11T08:09:37.022Z,99.90
2019-02-11T08:12:06.185Z,99.90
2019-02-11T08:14:35.411Z,99.90
2019-02-11T08:17:04.573Z,99.90
2019-02-11T08:19:33.858Z,99.90
2019-02-11T08:22:03.029Z,99.90
2019-02-11T08:24:32.293Z,99.90
2019-02-11T08:27:01.478Z,99.90
2019-02-11T08:29:30.671Z,99.90
2019-02-11T08:31:59.982Z,99.90
2019-02-11T08:34:29.251Z,99.90
2019-02-11T08:36:58.411Z,99.90
2019-02-11T08:39:27.571Z,99.90
2019-02-11T08:41:56.748Z,99.90
2019-02-11T08:44:26.004Z,99.90
2019-02-11T08:46:55.250Z,99.90
2019-02-11T08:49:24.428Z,99.90
2019-02-11T08:51:53.757Z,99.90
2019-02-11T08:54:23.002Z,99.90
2019-02-11T08:56:52.216Z,99.90
2019-02-11T08:59:21.368Z,99.90
2019-02-11T09:01:50.605Z,99.90
2019-02-11T09:04:19.936Z,99.90
2019-02-11T09:06:49.093Z,99.90
2019-02-11T09:09:18.789Z,99.90
2019-02-11T09:11:48.051Z,99.90
2019-02-11T09:14:18.357Z,99.90
2019-02-11T09:16:47.607Z,99.90
2019-02-11T09:19:16.857Z,99.90
2019-02-11T09:21:46.128Z,99.90
2019-02-11T09:24:15.287Z,99.90
2019-02-11T09:26:44.544Z,99.90
2019-02-11T09:29:13.713Z,99.90
2019-02-11T09:31:42.970Z,99.90
2019-02-11T09:34:12.110Z,99.90
2019-02-11T09:36:41.278Z,99.90
2019-02-11T09:39:10.624Z,99.90
2019-02-11T09:41:40.097Z,99.90
2019-02-11T09:44:09.373Z,99.90
2019-02-11T09:46:38.529Z,99.90
2019-02-11T09:49:07.710Z,99.90
2019-02-11T09:51:41.031Z,99.90
2019-02-11T09:54:10.272Z,99.90
2019-02-11T09:56:39.828Z,99.90
2019-02-11T09:59:08.995Z,99.90
2019-02-11T10:01:38.605Z,99.90
2019-02-11T10:04:07.768Z,99.90
2019-02-11T10:06:37.020Z,99.90
2019-02-11T10:09:06.841Z,99.90
2019-02-11T10:11:36.117Z,99.50
2019-02-11T10:14:05.295Z,99.60
2019-02-11T10:16:34.634Z,99.50
2019-02-11T10:19:03.828Z,99.20
2019-02-11T10:21:33.964Z,99.70
2019-02-11T10:24:03.412Z,99.10
2019-02-11T10:26:32.765Z,98.90
2019-02-11T10:29:01.979Z,98.10
2019-02-11T10:31:31.220Z,98.50
2019-02-11T10:34:00.350Z,99.10
2019-02-11T10:36:29.636Z,99.50
2019-02-11T10:38:58.948Z,98.70
2019-02-11T10:41:28.119Z,98.90
2019-02-11T10:43:57.296Z,98.90
2019-02-11T10:46:26.682Z,99.10
2019-02-11T10:48:55.936Z,98.90
2019-02-11T10:51:25.188Z,99.30
2019-02-11T10:53:54.409Z,99.70
2019-02-11T10:56:23.612Z,99.70
2019-02-11T10:58:52.781Z,99.90
2019-02-11T11:01:23.735Z,99.90
2019-02-11T11:03:52.893Z,99.30
2019-02-11T11:06:22.144Z,99.80
2019-02-11T11:08:51.295Z,99.70
2019-02-11T11:11:21.108Z,99.60
2019-02-11T11:13:50.361Z,99.80
2019-02-11T11:16:19.583Z,99.50
2019-02-11T11:18:48.898Z,99.40
2019-02-11T11:21:18.733Z,98.70
2019-02-11T11:23:47.961Z,99.20
2019-02-11T11:26:17.217Z,99.70
2019-02-11T11:28:46.436Z,99.40
2019-02-11T11:31:15.627Z,99.50
2019-02-11T11:33:44.821Z,99.80
2019-02-11T11:36:14.008Z,99.20
2019-02-11T11:38:43.263Z,99.50
2019-02-11T11:41:12.426Z,99.50
2019-02-11T11:43:41.622Z,99.50
2019-02-11T11:46:10.888Z,99.30
2019-02-11T11:48:40.133Z,98.70
2019-02-11T11:51:09.335Z,98.70
2019-02-11T11:53:38.633Z,98.70
2019-02-11T11:56:07.920Z,99.20
2019-02-11T11:58:37.266Z,98.10
2019-02-11T12:01:07.091Z,98.40
2019-02-11T12:03:37.954Z,98.60
2019-02-11T12:06:07.121Z,98.90
2019-02-11T12:08:36.279Z,98.70
2019-02-11T12:11:05.549Z,98.90
2019-02-11T12:13:34.744Z,98.60
2019-02-11T12:16:04.091Z,99.20
2019-02-11T12:18:33.259Z,99.00
2019-02-11T12:21:02.550Z,99.10
2019-02-11T12:23:31.878Z,99.20
2019-02-11T12:26:01.156Z,99.30
2019-02-11T12:28:30.603Z,99.40
2019-02-11T12:30:59.818Z,99.30
2019-02-11T12:33:29.202Z,99.30
2019-02-11T12:35:58.394Z,99.50
2019-02-11T12:38:27.653Z,99.30
2019-02-11T12:40:56.881Z,98.60
2019-02-11T12:43:26.234Z,99.50
2019-02-11T12:45:55.437Z,99.30
2019-02-11T12:48:24.573Z,99.70
2019-02-11T12:50:53.784Z,99.00
2019-02-11T12:53:23.242Z,99.50
2019-02-11T12:55:52.648Z,99.20
2019-02-11T12:58:21.954Z,99.10
2019-02-11T13:00:51.159Z,98.50
2019-02-11T13:03:20.381Z,98.70
2019-02-11T13:05:49.606Z,99.00
2019-02-11T13:08:18.875Z,99.10
2019-02-11T13:10:48.108Z,99.00
2019-02-11T13:13:17.446Z,98.30
2019-02-11T13:15:59.946Z,98.40
2019-02-11T13:18:17.678Z,98.80
2019-02-11T13:20:46.953Z,99.10
2019-02-11T13:23:16.147Z,99.20
2019-02-11T13:25:45.419Z,98.20
2019-02-11T13:28:14.628Z,97.90
2019-02-11T13:30:43.947Z,98.00
2019-02-11T13:33:15.015Z,98.60
2019-02-11T13:35:44.328Z,97.40
2019-02-11T13:38:13.812Z,97.20
2019-02-11T13:40:43.194Z,97.30
2019-02-11T13:43:14.062Z,97.90
2019-02-11T13:45:43.357Z,97.90
2019-02-11T13:48:12.609Z,97.90
2019-02-11T13:50:42.362Z,97.70
2019-02-11T13:53:11.592Z,97.90
2019-02-11T13:55:40.923Z,97.80
2019-02-11T13:58:10.509Z,97.60
2019-02-11T14:00:41.211Z,97.30
2019-02-11T14:03:10.506Z,97.20
2019-02-11T14:05:40.965Z,97.70
2019-02-11T14:08:10.235Z,97.90
2019-02-11T14:10:39.488Z,98.40
2019-02-11T14:13:09.017Z,98.50
2019-02-11T14:15:38.331Z,98.50
2019-02-11T14:18:13.998Z,98.60
2019-02-11T14:20:41.064Z,99.00
2019-02-11T14:23:10.583Z,98.60
2019-02-11T14:25:45.176Z,98.80
2019-02-11T14:28:11.178Z,99.00
2019-02-11T14:30:40.502Z,98.00
2019-02-11T14:33:10.280Z,98.60
2019-02-11T14:35:39.659Z,98.80
2019-02-11T14:38:09.041Z,98.60
2019-02-11T14:40:38.329Z,99.30
2019-02-11T14:43:07.646Z,99.10
2019-02-11T14:45:37.001Z,98.70
2019-02-11T14:48:06.330Z,98.50
2019-02-11T14:50:35.606Z,98.20
2019-02-11T14:53:04.756Z,97.90
2019-02-11T14:55:35.312Z,98.00
2019-02-11T14:58:04.528Z,97.70
2019-02-11T15:00:33.843Z,97.30
2019-02-11T15:03:03.054Z,97.80
2019-02-11T15:05:32.551Z,97.30
2019-02-11T15:08:01.708Z,97.30
2019-02-11T15:10:30.937Z,96.70
2019-02-11T15:13:01.739Z,96.80
2019-02-11T15:15:32.197Z,97.00
2019-02-11T15:18:01.440Z,96.90
2019-02-11T15:20:30.616Z,96.40
2019-02-11T15:22:59.860Z,97.10
2019-02-11T15:25:29.179Z,96.70
2019-02-11T15:27:58.443Z,96.90
2019-02-11T15:30:27.709Z,96.70
2019-02-11T15:32:56.972Z,96.00
2019-02-11T15:35:26.317Z,96.30
2019-02-11T15:37:55.461Z,96.60
2019-02-11T15:40:24.735Z,96.80
2019-02-11T15:42:53.904Z,96.40
2019-02-11T15:45:23.176Z,96.60
2019-02-11T15:47:52.582Z,97.10
2019-02-11T15:50:21.829Z,97.10
2019-02-11T15:52:51.229Z,97.10
2019-02-11T15:55:20.605Z,97.40
2019-02-11T15:57:49.860Z,97.10
2019-02-11T16:00:20.557Z,97.60
2019-02-11T16:02:51.609Z,97.30
2019-02-11T16:05:20.913Z,97.80
2019-02-11T16:07:50.127Z,97.40
2019-02-11T16:10:21.553Z,97.60
2019-02-11T16:12:50.760Z,97.70
2019-02-11T16:15:20.003Z,97.90
2019-02-11T16:17:49.287Z,98.10
2019-02-11T16:20:18.615Z,98.10
2019-02-11T16:22:47.896Z,98.70
2019-02-11T16:25:17.261Z,98.60
2019-02-11T16:27:46.522Z,98.50
2019-02-11T16:30:17.462Z,99.10
2019-02-11T16:32:46.762Z,98.70
2019-02-11T16:35:16.599Z,99.20
2019-02-11T16:37:46.171Z,99.20
2019-02-11T16:40:17.864Z,99.60
2019-02-11T16:42:46.997Z,99.70
2019-02-11T16:45:18.494Z,99.90
2019-02-11T16:47:47.348Z,99.90
2019-02-11T16:50:16.594Z,99.90
2019-02-11T16:52:45.926Z,99.90
2019-02-11T16:55:15.181Z,99.90
2019-02-11T16:57:44.439Z,99.90
2019-02-11T17:00:15.519Z,99.90
2019-02-11T17:02:44.783Z,99.90
2019-02-11T17:05:14.269Z,99.90
2019-02-11T17:07:43.560Z,99.90
2019-02-11T17:10:13.111Z,99.90
2019-02-11T17:12:42.517Z,99.90
2019-02-11T17:15:13.591Z,99.90
2019-02-11T17:17:42.824Z,99.90
2019-02-11T17:20:12.592Z,99.90
2019-02-11T17:22:41.874Z,99.90
2019-02-11T17:25:11.321Z,99.90
2019-02-11T17:27:40.466Z,99.90
2019-02-11T17:30:15.754Z,99.90
2019-02-11T17:32:45.031Z,99.90
2019-02-11T17:35:14.265Z,99.90
2019-02-11T17:37:43.515Z,99.90
2019-02-11T17:40:13.747Z,99.90
2019-02-11T17:42:42.881Z,99.90
2019-02-11T17:45:14.720Z,99.90
2019-02-11T17:47:44.003Z,99.90
2019-02-11T17:50:13.396Z,99.90
2019-02-11T17:52:42.717Z,99.90
2019-02-11T17:55:14.044Z,99.90
2019-02-11T17:57:43.302Z,99.90
2019-02-11T18:00:23.224Z,99.90
2019-02-11T18:02:52.579Z,99.90
2019-02-11T18:05:21.836Z,99.90
2019-02-11T18:07:51.148Z,99.90
2019-02-11T18:10:20.416Z,99.90
2019-02-11T18:12:49.677Z,99.90
2019-02-11T18:15:18.961Z,99.90
2019-02-11T18:17:48.338Z,99.90
2019-02-11T18:20:17.482Z,99.90
2019-02-11T18:22:46.940Z,99.90
2019-02-11T18:25:16.503Z,99.90
2019-02-11T18:27:45.862Z,99.90
2019-02-11T18:30:16.812Z,99.90
2019-02-11T18:32:45.995Z,99.90
2019-02-11T18:35:15.297Z,99.90
2019-02-11T18:37:44.649Z,99.90
2019-02-11T18:40:14.220Z,99.90
2019-02-11T18:42:43.421Z,99.90
2019-02-11T18:45:13.630Z,99.90
2019-02-11T18:47:42.943Z,99.90
2019-02-11T18:50:13.016Z,99.90
2019-02-11T18:52:42.294Z,99.90
2019-02-11T18:55:12.409Z,99.90
2019-02-11T18:57:43.584Z,99.90
2019-02-11T19:00:15.198Z,99.90
2019-02-11T19:02:44.522Z,99.90
2019-02-11T19:05:14.501Z,99.90
2019-02-11T19:07:43.763Z,99.90
2019-02-11T19:10:14.659Z,99.90
2019-02-11T19:12:43.874Z,99.90
2019-02-11T19:15:13.950Z,99.90
2019-02-11T19:17:43.189Z,99.90
2019-02-11T19:20:13.397Z,99.90
2019-02-11T19:22:42.652Z,99.90
2019-02-11T19:25:12.256Z,99.90
2019-02-11T19:27:41.673Z,99.90
2019-02-11T19:30:20.945Z,99.90
2019-02-11T19:32:50.463Z,99.90
2019-02-11T19:35:19.694Z,99.90
2019-02-11T19:37:48.975Z,99.90
2019-02-11T19:40:18.320Z,99.90
2019-02-11T19:42:47.614Z,99.90
2019-02-11T19:45:18.081Z,99.90
2019-02-11T19:47:47.400Z,99.90
2019-02-11T19:50:18.368Z,99.90
2019-02-11T19:52:47.685Z,99.90
2019-02-11T19:55:18.665Z,99.90
2019-02-11T19:57:48.044Z,99.90
2019-02-11T20:00:19.772Z,99.90
2019-02-11T20:02:49.465Z,99.90
2019-02-11T20:05:18.728Z,99.90
2019-02-11T20:07:48.215Z,99.90
2019-02-11T20:10:18.096Z,99.90
2019-02-11T20:12:47.365Z,99.90
2019-02-11T20:15:18.452Z,99.90
2019-02-11T20:17:47.809Z,99.90
2019-02-11T20:20:18.979Z,99.90
2019-02-11T20:22:48.289Z,99.90
2019-02-11T20:25:17.572Z,99.90
2019-02-11T20:27:46.959Z,99.90
2019-02-11T20:30:18.066Z,99.90
2019-02-11T20:32:47.304Z,99.90
2019-02-11T20:35:16.890Z,99.90
2019-02-11T20:37:46.102Z,99.90
2019-02-11T20:40:17.423Z,99.90
2019-02-11T20:42:46.622Z,99.90
2019-02-11T20:45:18.595Z,99.90
2019-02-11T20:47:47.857Z,99.90
2019-02-11T20:50:17.129Z,99.90
2019-02-11T20:52:47.404Z,99.90
2019-02-11T20:55:16.579Z,99.90
2019-02-11T20:57:45.956Z,99.90
2019-02-11T21:00:18.076Z,99.90
2019-02-11T21:02:47.542Z,99.90
2019-02-11T21:05:17.100Z,99.90
2019-02-11T21:07:46.443Z,99.90
2019-02-11T21:10:16.665Z,99.90
2019-02-11T21:12:46.019Z,99.90
2019-02-11T21:15:15.939Z,99.90
2019-02-11T21:17:45.188Z,99.90
2019-02-11T21:20:20.038Z,99.90
2019-02-11T21:22:49.328Z,99.90
2019-02-11T21:25:18.532Z,99.90
2019-02-11T21:27:47.702Z,99.90
2019-02-11T21:30:16.980Z,99.90
2019-02-11T21:32:46.149Z,99.90
2019-02-11T21:35:15.402Z,99.90
2019-02-11T21:37:44.558Z,99.90
2019-02-11T21:40:13.812Z,99.90
2019-02-11T21:42:44.552Z,99.90
2019-02-11T21:45:14.700Z,99.90
2019-02-11T21:47:44.170Z,99.90
2019-02-11T21:50:14.409Z,99.90
2019-02-11T21:52:43.661Z,99.90
2019-02-11T21:55:13.516Z,99.90
2019-02-11T21:57:42.811Z,99.90
2019-02-11T22:00:14.619Z,99.90
2019-02-11T22:02:43.934Z,99.90
2019-02-11T22:05:13.135Z,99.90
2019-02-11T22:07:42.370Z,99.90
2019-02-11T22:10:13.439Z,99.90
2019-02-11T22:12:42.722Z,99.90
2019-02-11T22:15:14.098Z,99.90
2019-02-11T22:17:43.246Z,99.90
2019-02-11T22:20:14.457Z,99.90
2019-02-11T22:22:44.231Z,99.90
2019-02-11T22:25:13.705Z,99.90
2019-02-11T22:27:42.883Z,99.90
2019-02-11T22:30:14.385Z,99.90
2019-02-11T22:32:43.521Z,99.90
2019-02-11T22:35:12.714Z,99.90
2019-02-11T22:37:41.940Z,99.90
2019-02-11T22:40:12.207Z,99.90
2019-02-11T22:42:41.372Z,99.90
2019-02-11T22:45:12.963Z,99.90
2019-02-11T22:47:42.110Z,99.90
2019-02-11T22:50:11.942Z,99.90
2019-02-11T22:52:41.200Z,99.90
2019-02-11T22:55:10.654Z,99.90
2019-02-11T22:57:39.941Z,99.90
2019-02-11T23:00:44.022Z,99.90
2019-02-11T23:03:14.558Z,99.90
2019-02-11T23:05:44.096Z,99.90
2019-02-11T23:08:13.348Z,99.90
2019-02-11T23:10:42.735Z,99.90
2019-02-11T23:13:11.944Z,99.90
2019-02-11T23:15:41.083Z,99.90
2019-02-11T23:18:13.448Z,99.90
2019-02-11T23:20:51.530Z,99.90
2019-02-11T23:23:15.472Z,99.90
2019-02-11T23:25:44.621Z,99.90
2019-02-11T23:28:13.908Z,99.90
2019-02-11T23:30:43.277Z,99.90
2019-02-11T23:33:12.523Z,99.90
2019-02-11T23:35:41.633Z,99.90
2019-02-11T23:38:10.876Z,99.90
2019-02-11T23:40:40.088Z,99.90
2019-02-11T23:43:09.264Z,99.90
2019-02-11T23:45:38.373Z,99.90
2019-02-11T23:48:07.673Z,99.90
2019-02-11T23:50:36.953Z,99.90
2019-02-11T23:53:06.084Z,99.90
2019-02-11T23:55:35.251Z,99.90
2019-02-11T23:58:04.456Z,99.90
